Time;durP1;ratioP1;P1;durP2;ratioP2;P2;SDS_P1;SDS_P2;PMS_P1;PMS_P2;Temp;Humidity;BMP_temperature;BMP_pressure;BME280_temperature;BME280_humidity;BME280_pressure;Samples;Min_cycle;Max_cycle;Signal;HPM_P1;HPM_P2
2023/08/04 04:00:56;;;;;;;3.70;1.15;;;16.90;99.90;;;;;;5671459;23;20197;-64
2023/08/04 04:03:22;;;;;;;3.00;1.40;;;16.90;99.90;;;;;;4978304;28;20027;-64
2023/08/04 04:05:47;;;;;;;3.08;1.00;;;16.90;99.90;;;;;;4975060;28;20023;-64
2023/08/04 04:08:13;;;;;;;3.57;1.40;;;16.90;99.90;;;;;;4975554;28;20395;-64
2023/08/04 04:10:38;;;;;;;5.27;1.10;;;17.00;99.90;;;;;;4976478;28;20285;-64
2023/08/04 04:13:04;;;;;;;2.60;1.10;;;17.00;99.90;;;;;;4959152;28;20019;-65
2023/08/04 04:15:29;;;;;;;4.87;1.13;;;16.90;99.90;;;;;;4977331;28;20041;-64
2023/08/04 04:17:55;;;;;;;3.22;1.05;;;16.90;99.90;;;;;;4976253;28;20509;-64
2023/08/04 04:20:21;;;;;;;2.90;0.93;;;17.10;99.90;;;;;;4976308;28;20034;-64
2023/08/04 04:22:46;;;;;;;2.83;1.20;;;17.10;99.90;;;;;;4975913;28;20027;-64
2023/08/04 04:25:12;;;;;;;3.45;1.08;;;17.10;99.90;;;;;;4976031;28;20019;-64
2023/08/04 04:27:37;;;;;;;1.65;1.20;;;17.10;99.90;;;;;;4975965;28;20042;-64
2023/08/04 04:30:03;;;;;;;3.33;0.87;;;17.10;99.90;;;;;;4975884;28;20118;-65
2023/08/04 04:32:29;;;;;;;3.70;0.90;;;17.20;99.90;;;;;;4975199;28;20754;-65
2023/08/04 04:34:54;;;;;;;3.00;0.85;;;17.10;99.90;;;;;;4976151;28;20038;-65
2023/08/04 04:37:20;;;;;;;4.17;0.77;;;17.00;99.90;;;;;;4975812;28;20034;-65
2023/08/04 04:39:46;;;;;;;4.63;1.10;;;17.10;99.90;;;;;;4976777;28;20387;-65
2023/08/04 04:42:11;;;;;;;2.38;0.77;;;17.10;99.90;;;;;;4976115;28;20262;-65
2023/08/04 04:44:37;;;;;;;1.73;0.75;;;17.10;99.90;;;;;;4976119;28;20094;-64
2023/08/04 04:47:04;;;;;;;4.05;1.10;;;17.00;99.90;;;;;;4975689;28;20033;-64
2023/08/04 04:49:30;;;;;;;4.60;1.00;;;17.10;99.90;;;;;;4975508;28;20507;-65
2023/08/04 04:51:56;;;;;;;4.20;1.02;;;17.00;99.90;;;;;;4975141;28;20027;-65
2023/08/04 04:54:22;;;;;;;3.72;0.95;;;16.90;99.90;;;;;;4975675;28;20375;-65
2023/08/04 04:56:48;;;;;;;1.75;0.80;;;17.00;99.90;;;;;;4976040;28;20102;-65
2023/08/04 04:59:14;;;;;;;3.97;0.85;;;17.00;99.90;;;;;;4975457;28;20055;-63
2023/08/04 05:01:40;;;;;;;2.33;0.80;;;16.80;99.90;;;;;;4975313;28;20547;-64
2023/08/04 05:04:05;;;;;;;1.52;0.90;;;16.90;99.90;;;;;;4975589;28;20062;-65
2023/08/04 05:06:31;;;;;;;3.72;1.00;;;16.70;99.90;;;;;;4975443;28;20027;-65
2023/08/04 05:08:56;;;;;;;4.27;1.67;;;16.60;99.90;;;;;;4974990;28;20038;-65
2023/08/04 05:11:22;;;;;;;2.75;1.17;;;16.70;99.90;;;;;;4975084;28;20107;-65
2023/08/04 05:13:47;;;;;;;3.70;1.10;;;16.60;99.90;;;;;;4975323;28;20568;-65
2023/08/04 05:16:13;;;;;;;3.55;1.10;;;16.60;99.90;;;;;;4953021;28;20042;-65
2023/08/04 05:18:38;;;;;;;2.60;1.10;;;16.80;99.90;;;;;;4974977;28;20400;-65
2023/08/04 05:21:04;;;;;;;1.97;1.20;;;16.80;99.90;;;;;;4975293;28;20265;-65
2023/08/04 05:23:29;;;;;;;3.15;1.15;;;16.80;99.90;;;;;;4975085;28;20027;-66
2023/08/04 05:25:55;;;;;;;3.67;1.00;;;16.90;99.90;;;;;;4974876;28;20031;-65
2023/08/04 05:28:30;;;;;;;2.97;1.20;;;17.00;99.90;;;;;;4974889;28;20266;-66
2023/08/04 05:30:59;;;;;;;2.92;0.90;;;16.80;99.90;;;;;;4957432;28;20302;-65
2023/08/04 05:33:26;;;;;;;2.47;0.80;;;16.90;99.90;;;;;;4975076;28;20106;-65
2023/08/04 05:35:52;;;;;;;3.78;1.65;;;16.90;99.90;;;;;;4974672;28;20543;-65
2023/08/04 05:38:18;;;;;;;4.30;1.52;;;16.90;99.90;;;;;;4974370;28;20031;-65
2023/08/04 05:40:45;;;;;;;3.83;1.00;;;16.90;99.90;;;;;;4972756;28;20110;-64
2023/08/04 05:43:11;;;;;;;3.60;1.10;;;16.80;99.90;;;;;;4975103;28;20026;-64
2023/08/04 05:45:38;;;;;;;;;;;16.80;99.90;;;;;;4975012;28;20086;-64
2023/08/04 05:48:04;;;;;;;5.03;1.60;;;16.80;99.90;;;;;;4975191;28;20005;-64
2023/08/04 05:50:29;;;;;;;;;;;16.80;99.90;;;;;;4974712;28;20038;-65
2023/08/04 05:52:56;;;;;;;2.40;0.85;;;16.70;99.90;;;;;;4974238;28;19906;-65
2023/08/04 05:55:22;;;;;;;3.13;1.10;;;16.70;99.90;;;;;;4956306;28;20065;-66
2023/08/04 05:57:47;;;;;;;2.65;1.00;;;16.70;99.90;;;;;;4973403;28;20091;-67
2023/08/04 06:00:13;;;;;;;3.57;0.93;;;16.70;99.90;;;;;;4973073;28;20030;-65
2023/08/04 06:02:39;;;;;;;2.47;1.35;;;16.70;99.90;;;;;;4956425;28;20278;-64
2023/08/04 06:05:05;;;;;;;2.50;1.00;;;16.80;99.90;;;;;;4973834;28;20101;-65
2023/08/04 06:07:30;;;;;;;3.47;1.30;;;16.80;99.90;;;;;;4956441;28;20027;-65
2023/08/04 06:09:56;;;;;;;2.70;1.20;;;16.80;99.90;;;;;;4974278;28;20119;-64
2023/08/04 06:12:21;;;;;;;3.10;1.47;;;16.80;99.90;;;;;;4974566;28;20266;-65
2023/08/04 06:14:47;;;;;;;4.50;1.35;;;16.80;99.90;;;;;;4973156;28;20439;-65
2023/08/04 06:17:12;;;;;;;3.97;0.88;;;16.90;99.90;;;;;;4972758;28;20038;-65
2023/08/04 06:19:43;;;;;;;2.05;0.95;;;17.00;99.90;;;;;;4973423;28;20025;-64
2023/08/04 06:22:09;;;;;;;3.65;1.30;;;17.00;99.90;;;;;;4975154;28;20444;-65
2023/08/04 06:24:34;;;;;;;3.35;1.30;;;17.10;99.90;;;;;;4975087;28;20041;-65
2023/08/04 06:27:00;;;;;;;3.08;1.30;;;17.20;99.90;;;;;;4976114;28;20086;-66
2023/08/04 06:29:26;;;;;;;4.50;1.20;;;17.30;99.90;;;;;;4980163;28;20102;-65
2023/08/04 06:31:51;;;;;;;3.07;1.20;;;17.30;99.90;;;;;;4979682;28;20066;-64
2023/08/04 06:34:17;;;;;;;2.15;1.00;;;17.40;99.90;;;;;;4979766;28;20270;-66
2023/08/04 06:36:46;;;;;;;4.60;1.20;;;17.40;99.90;;;;;;4979304;28;20076;-69
2023/08/04 06:39:11;;;;;;;4.10;1.27;;;17.30;99.90;;;;;;4980712;28;20030;-70
2023/08/04 06:41:37;;;;;;;5.93;2.63;;;17.30;99.90;;;;;;4981310;28;20365;-70
2023/08/04 06:44:03;;;;;;;4.53;1.55;;;17.30;99.90;;;;;;4966105;28;20619;-68
2023/08/04 06:46:28;;;;;;;4.68;1.05;;;17.20;99.90;;;;;;4962251;28;20075;-66
2023/08/04 06:48:54;;;;;;;3.75;1.33;;;17.30;99.90;;;;;;4962527;28;20054;-68
2023/08/04 06:51:19;;;;;;;2.97;1.27;;;17.30;99.90;;;;;;4981249;28;20027;-68
2023/08/04 06:53:45;;;;;;;4.40;1.10;;;17.20;99.90;;;;;;4978529;28;20027;-67
2023/08/04 06:56:10;;;;;;;6.10;2.10;;;17.10;99.90;;;;;;4961189;28;20542;-68
2023/08/04 06:58:36;;;;;;;4.68;1.50;;;17.10;99.90;;;;;;4977679;28;20408;-69
2023/08/04 07:01:01;;;;;;;4.00;0.80;;;17.10;99.90;;;;;;4977961;28;20035;-71
2023/08/04 07:03:27;;;;;;;3.22;1.08;;;17.10;99.90;;;;;;4977826;28;20031;-68
2023/08/04 07:05:53;;;;;;;2.38;0.90;;;17.10;99.90;;;;;;4961665;28;20060;-69
2023/08/04 07:08:18;;;;;;;3.28;1.08;;;17.10;99.90;;;;;;4978326;28;20349;-68
2023/08/04 07:10:45;;;;;;;2.70;1.35;;;17.10;99.90;;;;;;4977639;28;20476;-69
2023/08/04 07:13:10;;;;;;;;;;;17.20;99.90;;;;;;4982880;28;20193;-68
2023/08/04 07:15:36;;;;;;;1.30;1.00;;;17.40;99.90;;;;;;4981294;28;19969;-68
2023/08/04 07:18:02;;;;;;;2.95;1.13;;;17.40;99.90;;;;;;4977652;28;20353;-67
2023/08/04 07:20:31;;;;;;;;;;;17.50;99.90;;;;;;4962359;28;20080;-67
2023/08/04 07:22:57;;;;;;;4.57;1.52;;;17.60;99.90;;;;;;4960747;28;19906;-68
2023/08/04 07:25:24;;;;;;;3.40;1.00;;;17.80;99.90;;;;;;4975960;28;20035;-67
2023/08/04 07:27:50;;;;;;;5.40;1.10;;;17.90;99.90;;;;;;4970154;28;20097;-67
2023/08/04 07:30:15;;;;;;;3.10;1.23;;;18.00;99.90;;;;;;4978300;28;20109;-67
2023/08/04 07:32:41;;;;;;;2.63;1.10;;;18.10;99.90;;;;;;4976279;28;20063;-67
2023/08/04 07:35:07;;;;;;;2.70;1.35;;;18.20;99.90;;;;;;4966333;28;20053;-67
2023/08/04 07:37:33;;;;;;;2.60;0.93;;;18.10;99.90;;;;;;4972312;28;20054;-66
2023/08/04 07:39:59;;;;;;;3.55;1.00;;;18.10;99.90;;;;;;4976190;28;20069;-67
2023/08/04 07:42:25;;;;;;;2.60;1.05;;;18.00;99.90;;;;;;4976698;28;20054;-67
2023/08/04 07:44:50;;;;;;;;;;;18.00;99.90;;;;;;4977607;28;20509;-67
2023/08/04 07:47:16;;;;;;;7.80;1.70;;;17.90;99.90;;;;;;4977700;28;19910;-66
2023/08/04 07:49:41;;;;;;;4.97;1.50;;;17.90;99.90;;;;;;4977241;28;20058;-66
2023/08/04 07:52:07;;;;;;;6.80;1.30;;;18.00;99.90;;;;;;4975990;28;20125;-67
2023/08/04 07:54:34;;;;;;;3.83;1.48;;;18.10;99.90;;;;;;4976659;28;20037;-65
2023/08/04 07:57:01;;;;;;;3.92;1.23;;;18.20;99.90;;;;;;4976998;28;20035;-67
2023/08/04 07:59:27;;;;;;;4.35;1.10;;;18.30;99.90;;;;;;4976802;28;20101;-66
2023/08/04 08:01:52;;;;;;;2.78;0.95;;;18.40;99.90;;;;;;4976633;28;20495;-66
2023/08/04 08:04:18;;;;;;;5.70;2.85;;;18.70;99.90;;;;;;4976806;28;20440;-66
2023/08/04 08:06:43;;;;;;;6.80;1.55;;;18.80;99.90;;;;;;4977063;28;20105;-66
2023/08/04 08:09:09;;;;;;;2.22;1.10;;;18.90;99.90;;;;;;4976664;28;20061;-67
2023/08/04 08:11:35;;;;;;;6.32;1.40;;;19.10;99.90;;;;;;4974042;28;20383;-66
2023/08/04 08:14:00;;;;;;;2.13;1.05;;;19.30;99.90;;;;;;4975222;28;20030;-67
2023/08/04 08:16:26;;;;;;;2.95;1.40;;;19.40;99.90;;;;;;4974040;28;20031;-65
2023/08/04 08:18:51;;;;;;;4.78;1.00;;;19.50;99.90;;;;;;4968175;28;20480;-65
2023/08/04 08:21:17;;;;;;;3.20;1.58;;;19.60;99.90;;;;;;4976336;28;20031;-66
2023/08/04 08:23:42;;;;;;;4.60;1.45;;;19.90;99.90;;;;;;4976051;28;20034;-65
2023/08/04 08:26:08;;;;;;;3.65;1.38;;;20.10;99.90;;;;;;4957133;28;20066;-68
2023/08/04 08:28:33;;;;;;;2.78;1.10;;;20.40;99.90;;;;;;4962613;28;20487;-66
2023/08/04 08:30:59;;;;;;;3.35;1.00;;;20.70;99.90;;;;;;4994657;28;20026;-67
2023/08/04 08:33:24;;;;;;;3.75;1.00;;;21.30;99.90;;;;;;4995489;28;20041;-64
2023/08/04 08:35:50;;;;;;;5.00;1.25;;;21.70;99.90;;;;;;4993127;28;20128;-68
2023/08/04 08:38:15;;;;;;;5.18;1.30;;;22.20;99.90;;;;;;4973640;28;20440;-66
2023/08/04 08:40:41;;;;;;;3.63;1.17;;;22.50;99.90;;;;;;4971195;28;20026;-66
2023/08/04 08:43:07;;;;;;;3.38;1.25;;;22.80;99.90;;;;;;4975445;28;20038;-66
2023/08/04 08:45:34;;;;;;;2.53;0.98;;;22.90;99.90;;;;;;4975349;28;20464;-66
2023/08/04 08:47:59;;;;;;;4.07;1.08;;;23.00;99.90;;;;;;4966062;28;20038;-67
2023/08/04 08:50:27;;;;;;;5.20;1.58;;;22.90;99.90;;;;;;4975131;28;20042;-65
2023/08/04 08:53:13;;;;;;;3.30;1.02;;;22.90;99.90;;;;;;4975186;28;20488;-66
2023/08/04 08:55:40;;;;;;;1.60;0.93;;;23.00;99.90;;;;;;4975412;28;20365;-66
2023/08/04 08:58:07;;;;;;;3.85;1.02;;;23.00;99.90;;;;;;4975084;28;20030;-65
2023/08/04 09:00:34;;;;;;;2.92;1.38;;;22.80;99.90;;;;;;4974864;28;20058;-66
2023/08/04 09:03:02;;;;;;;3.78;1.13;;;22.70;99.90;;;;;;4975035;28;20038;-67
2023/08/04 09:05:30;;;;;;;4.35;1.05;;;22.50;99.90;;;;;;4975224;28;20069;-67
2023/08/04 09:07:56;;;;;;;4.65;1.05;;;22.00;99.90;;;;;;4974798;28;20030;-67
2023/08/04 09:10:21;;;;;;;4.13;1.02;;;21.80;99.90;;;;;;4974967;28;20077;-67
2023/08/04 09:12:48;;;;;;;;;;;22.90;99.90;;;;;;4979485;28;20602;-64
2023/08/04 09:15:14;;;;;;;4.85;1.10;;;24.50;99.90;;;;;;4989298;28;19914;-65
2023/08/04 09:17:40;;;;;;;;;;;25.20;99.90;;;;;;4975295;28;20080;-67
2023/08/04 09:20:08;;;;;;;3.25;1.17;;;25.40;99.90;;;;;;4974017;28;19913;-66
2023/08/04 09:22:39;;;;;;;3.42;1.08;;;24.90;99.90;;;;;;4973991;28;20456;-66
2023/08/04 09:25:05;;;;;;;4.88;1.30;;;24.20;99.90;;;;;;4966230;28;20027;-65
2023/08/04 09:27:38;;;;;;;3.08;1.60;;;23.60;99.90;;;;;;4965758;28;20023;-65
2023/08/04 09:30:08;;;;;;;3.05;1.00;;;24.30;99.90;;;;;;4967791;28;20033;-65
2023/08/04 09:32:44;;;;;;;3.97;1.17;;;27.40;99.90;;;;;;4971964;28;20027;-65
2023/08/04 09:35:10;;;;;;;2.33;0.80;;;30.30;97.80;;;;;;4956629;28;20088;-65
2023/08/04 09:37:37;;;;;;;2.17;0.80;;;32.00;94.50;;;;;;4970871;28;20035;-65
2023/08/04 09:40:23;;;;;;;4.20;0.98;;;31.20;93.10;;;;;;4976189;28;20058;-66
2023/08/04 09:42:49;;;;;;;3.92;1.20;;;29.10;94.00;;;;;;4994211;28;20034;-65
2023/08/04 09:45:16;;;;;;;1.45;1.00;;;27.30;96.70;;;;;;4996354;28;20030;-64
2023/08/04 09:47:51;;;;;;;1.30;0.93;;;25.80;99.20;;;;;;4968413;28;20023;-65
2023/08/04 09:50:18;;;;;;;1.88;0.93;;;25.00;99.90;;;;;;4978301;28;20508;-67
2023/08/04 09:52:44;;;;;;;2.63;0.95;;;24.10;99.90;;;;;;4944149;28;20034;-66
2023/08/04 09:55:10;;;;;;;1.95;1.05;;;23.50;99.90;;;;;;4974195;28;20050;-66
2023/08/04 09:57:36;;;;;;;;;;;23.00;99.90;;;;;;4974345;28;20077;-67
2023/08/04 10:00:04;;;;;;;1.30;1.10;;;22.60;99.90;;;;;;4953116;29;19926;-67
2023/08/04 10:02:30;;;;;;;1.77;1.40;;;22.00;99.90;;;;;;4971756;28;20027;-68
2023/08/04 10:04:56;;;;;;;2.95;1.48;;;21.70;99.90;;;;;;4974192;28;20018;-66
2023/08/04 10:07:23;;;;;;;3.90;1.50;;;21.40;99.90;;;;;;4966087;28;20019;-67
2023/08/04 10:09:49;;;;;;;3.35;2.00;;;21.10;99.90;;;;;;4972597;28;20093;-62
2023/08/04 10:12:16;;;;;;;5.35;1.85;;;21.00;99.90;;;;;;4973118;28;20035;-65
2023/08/04 10:14:42;;;;;;;2.88;2.10;;;21.00;99.90;;;;;;4978163;28;20031;-65
2023/08/04 10:17:08;;;;;;;4.00;1.80;;;20.70;99.90;;;;;;4974996;28;20030;-63
2023/08/04 10:19:35;;;;;;;2.35;1.85;;;20.50;99.90;;;;;;4970649;28;20035;-63
2023/08/04 10:22:20;;;;;;;3.08;2.00;;;20.40;99.90;;;;;;4973626;28;20058;-66
2023/08/04 10:24:45;;;;;;;8.82;2.00;;;20.30;99.90;;;;;;4975378;28;20033;-67
2023/08/04 10:27:21;;;;;;;3.95;2.70;;;20.10;99.90;;;;;;4974513;28;20105;-67
2023/08/04 10:30:09;;;;;;;2.85;2.22;;;20.00;99.90;;;;;;4960935;28;20034;-67
2023/08/04 10:32:36;;;;;;;4.60;2.30;;;19.80;99.90;;;;;;4981383;28;20039;-66
2023/08/04 10:35:16;;;;;;;3.00;2.45;;;19.60;99.90;;;;;;4973490;28;20058;-66
2023/08/04 10:37:48;;;;;;;3.22;2.35;;;19.50;99.90;;;;;;4963687;28;20027;-66
2023/08/04 10:40:25;;;;;;;5.00;2.95;;;19.40;99.90;;;;;;4955659;28;20079;-65
2023/08/04 10:42:58;;;;;;;5.70;2.95;;;19.30;99.90;;;;;;4937896;29;20027;-66
2023/08/04 10:45:23;;;;;;;3.95;3.15;;;19.10;99.90;;;;;;4973201;28;20111;-65
2023/08/04 10:47:53;;;;;;;4.45;3.10;;;19.10;99.90;;;;;;4975688;28;20056;-64
2023/08/04 10:50:19;;;;;;;5.07;3.58;;;19.00;99.90;;;;;;4968565;28;20034;-66
2023/08/04 10:52:45;;;;;;;9.35;3.40;;;19.10;99.90;;;;;;4955017;29;20038;-65
2023/08/04 10:55:12;;;;;;;5.32;3.58;;;19.20;99.90;;;;;;4960236;28;20035;-65
2023/08/04 10:57:39;;;;;;;5.10;3.47;;;19.10;99.90;;;;;;4956917;28;20035;-66
2023/08/04 11:00:10;;;;;;;6.20;3.55;;;19.10;99.90;;;;;;4970598;28;20511;-67
2023/08/04 11:02:37;;;;;;;5.95;3.80;;;19.10;99.90;;;;;;4972646;28;20031;-66
2023/08/04 11:05:07;;;;;;;6.68;3.75;;;19.20;99.90;;;;;;4974123;28;20019;-66
2023/08/04 11:07:34;;;;;;;5.28;4.20;;;19.30;99.90;;;;;;4974540;28;20369;-66
2023/08/04 11:10:04;;;;;;;5.35;3.95;;;19.80;99.90;;;;;;4974074;28;20031;-65
2023/08/04 11:12:32;;;;;;;5.55;4.15;;;20.10;99.90;;;;;;4974072;28;20029;-66
2023/08/04 11:14:59;;;;;;;4.20;3.65;;;20.70;99.90;;;;;;4976128;28;20487;-66
2023/08/04 11:17:24;;;;;;;3.45;3.15;;;21.40;99.90;;;;;;4977804;28;20064;-66
2023/08/04 11:19:50;;;;;;;3.95;3.53;;;21.60;99.90;;;;;;4977252;28;20054;-67
2023/08/04 11:22:22;;;;;;;4.32;3.15;;;21.60;99.90;;;;;;4959667;28;20093;-67
2023/08/04 11:24:50;;;;;;;4.18;3.78;;;21.70;99.90;;;;;;4959373;28;20026;-67
2023/08/04 11:27:16;;;;;;;5.25;3.35;;;21.80;99.90;;;;;;4977075;28;20552;-67
2023/08/04 11:29:42;;;;;;;3.45;2.97;;;21.90;99.90;;;;;;4977279;28;20113;-68
2023/08/04 11:32:12;;;;;;;3.90;3.35;;;22.00;99.90;;;;;;4977539;28;20038;-68
2023/08/04 11:34:40;;;;;;;4.07;3.50;;;21.70;99.90;;;;;;4977954;28;20070;-67
2023/08/04 11:37:07;;;;;;;4.60;3.03;;;21.50;99.90;;;;;;4977568;28;20400;-67
2023/08/04 11:39:34;;;;;;;5.22;3.15;;;21.60;99.90;;;;;;4976994;28;20023;-67
2023/08/04 11:42:00;;;;;;;3.80;3.40;;;21.80;99.90;;;;;;4979513;28;20029;-66
2023/08/04 11:44:26;;;;;;;4.95;3.28;;;21.80;99.90;;;;;;4977256;28;20462;-67
2023/08/04 11:46:52;;;;;;;4.57;3.63;;;21.70;99.90;;;;;;4976824;28;20037;-66
2023/08/04 11:49:17;;;;;;;;;;;21.40;99.90;;;;;;4977222;28;20034;-66
2023/08/04 11:51:44;;;;;;;5.07;3.70;;;21.10;99.90;;;;;;4977221;28;20223;-66
2023/08/04 11:54:21;;;;;;;5.10;3.75;;;21.00;99.90;;;;;;4976410;28;20095;-66
2023/08/04 11:56:52;;;;;;;4.55;3.42;;;20.90;99.90;;;;;;4959401;28;20387;-66
2023/08/04 11:59:17;;;;;;;4.50;3.75;;;21.00;99.90;;;;;;4957598;28;20027;-66
2023/08/04 12:01:43;;;;;;;4.03;3.10;;;21.00;99.90;;;;;;4976333;28;20402;-66
2023/08/04 12:04:22;;;;;;;4.03;3.58;;;21.10;99.90;;;;;;4976381;28;20476;-66
2023/08/04 12:07:01;;;;;;;5.10;4.20;;;21.20;99.90;;;;;;4976375;28;20020;-66
2023/08/04 12:09:27;;;;;;;5.65;3.10;;;21.40;99.90;;;;;;4976081;28;20412;-67
2023/08/04 12:11:53;;;;;;;4.35;3.08;;;21.40;99.90;;;;;;4976738;28;20046;-66
2023/08/04 12:14:22;;;;;;;4.75;2.95;;;21.10;99.90;;;;;;4977118;28;20058;-66
2023/08/04 12:16:56;;;;;;;4.45;2.85;;;21.00;99.90;;;;;;4977038;28;20085;-65
2023/08/04 12:19:23;;;;;;;3.25;2.80;;;21.00;99.90;;;;;;4959324;28;20085;-66
2023/08/04 12:21:50;;;;;;;3.30;2.80;;;20.80;99.90;;;;;;4976682;28;20031;-64
2023/08/04 12:24:16;;;;;;;3.58;3.22;;;21.10;99.90;;;;;;4958850;28;20038;-66
2023/08/04 12:26:44;;;;;;;3.38;3.08;;;21.30;99.90;;;;;;4975624;28;20022;-66
2023/08/04 12:29:10;;;;;;;4.30;2.60;;;21.30;99.90;;;;;;4976781;28;20081;-66
2023/08/04 12:31:37;;;;;;;5.40;3.03;;;21.30;99.90;;;;;;4976416;28;20475;-66
2023/08/04 12:34:03;;;;;;;3.65;3.10;;;21.10;99.90;;;;;;4975822;28;20042;-65
2023/08/04 12:36:28;;;;;;;;;;;21.20;99.90;;;;;;4959318;28;20057;-65
2023/08/04 12:38:54;;;;;;;4.72;3.45;;;21.20;99.90;;;;;;4975531;28;20355;-65
2023/08/04 12:41:19;;;;;;;7.80;4.10;;;21.10;99.90;;;;;;4959124;28;20027;-65
2023/08/04 12:43:45;;;;;;;5.07;4.05;;;21.10;99.90;;;;;;4956934;28;20023;-68
2023/08/04 12:46:10;;;;;;;5.28;3.72;;;21.00;99.90;;;;;;4975849;28;20084;-66
2023/08/04 12:48:36;;;;;;;5.10;4.00;;;20.90;99.90;;;;;;4975675;28;20111;-66
2023/08/04 12:51:02;;;;;;;4.32;3.92;;;20.80;99.90;;;;;;4975874;28;20518;-67
2023/08/04 12:53:27;;;;;;;4.80;4.13;;;20.70;99.90;;;;;;4975529;28;20027;-66
2023/08/04 12:55:53;;;;;;;5.35;3.90;;;20.60;99.90;;;;;;4975556;28;20019;-67
2023/08/04 12:58:18;;;;;;;6.32;4.45;;;20.60;99.90;;;;;;4975371;28;20023;-67
2023/08/04 13:00:44;;;;;;;6.55;4.60;;;20.50;99.90;;;;;;4975180;28;20404;-66
2023/08/04 13:03:09;;;;;;;6.88;4.63;;;20.60;99.90;;;;;;4975673;28;20034;-64
2023/08/04 13:05:35;;;;;;;5.43;4.63;;;20.70;99.90;;;;;;4975414;28;20027;-67
2023/08/04 13:08:00;;;;;;;5.40;4.68;;;20.80;99.90;;;;;;4975423;28;20033;-68
2023/08/04 13:10:26;;;;;;;7.88;4.93;;;21.00;99.90;;;;;;4974285;28;20054;-68
2023/08/04 13:12:52;;;;;;;6.40;4.93;;;21.10;99.90;;;;;;4975509;28;20063;-67
2023/08/04 13:15:17;;;;;;;6.82;4.78;;;21.20;99.90;;;;;;4976264;28;20026;-68
2023/08/04 13:17:43;;;;;;;5.05;4.22;;;21.20;99.90;;;;;;4967040;28;20035;-67
2023/08/04 13:20:08;;;;;;;5.38;3.85;;;21.30;99.90;;;;;;4975242;28;20391;-67
2023/08/04 13:22:35;;;;;;;5.00;3.90;;;21.50;99.90;;;;;;4975036;28;20093;-67
2023/08/04 13:25:01;;;;;;;5.88;4.00;;;21.50;99.90;;;;;;4975174;28;20018;-67
2023/08/04 13:27:26;;;;;;;5.13;4.22;;;21.50;99.90;;;;;;4975039;28;20027;-69
2023/08/04 13:29:52;;;;;;;6.82;4.05;;;21.50;99.90;;;;;;4974970;28;20114;-67
2023/08/04 13:32:17;;;;;;;5.90;4.97;;;21.60;99.90;;;;;;4974950;28;20027;-68
2023/08/04 13:34:43;;;;;;;7.97;4.28;;;21.60;99.90;;;;;;4975207;28;20035;-68
2023/08/04 13:37:08;;;;;;;5.47;4.03;;;21.40;99.90;;;;;;4957536;28;20030;-67
2023/08/04 13:39:35;;;;;;;6.15;4.53;;;21.50;99.90;;;;;;4963012;28;20042;-68
2023/08/04 13:42:01;;;;;;;4.80;4.30;;;21.50;99.90;;;;;;4977336;28;20023;-68
2023/08/04 13:44:26;;;;;;;5.43;4.43;;;21.50;99.90;;;;;;4977541;28;20088;-67
2023/08/04 13:46:52;;;;;;;6.03;4.47;;;21.60;99.90;;;;;;4975954;28;20034;-67
2023/08/04 13:49:17;;;;;;;6.65;4.00;;;21.70;99.90;;;;;;4975646;28;20506;-67
2023/08/04 13:51:43;;;;;;;4.88;3.78;;;21.80;99.90;;;;;;4957920;28;20504;-67
2023/08/04 13:54:08;;;;;;;4.80;3.60;;;21.80;99.90;;;;;;4974956;28;20029;-66
2023/08/04 13:56:34;;;;;;;4.45;3.55;;;21.90;99.90;;;;;;4975174;28;20038;-67
2023/08/04 13:59:00;;;;;;;4.78;3.60;;;21.70;99.90;;;;;;4975487;28;20031;-67
2023/08/04 14:01:25;;;;;;;4.72;3.95;;;21.80;99.90;;;;;;4975115;28;20039;-67
2023/08/04 14:03:51;;;;;;;5.55;3.92;;;21.80;99.90;;;;;;4975634;28;20050;-67
2023/08/04 14:06:17;;;;;;;5.00;4.00;;;21.90;99.90;;;;;;4957398;28;20087;-67
2023/08/04 14:08:42;;;;;;;4.75;3.35;;;21.90;99.90;;;;;;4974564;28;20058;-68
2023/08/04 14:11:08;;;;;;;6.18;4.20;;;21.90;99.90;;;;;;4975123;28;20030;-66
2023/08/04 14:13:33;;;;;;;5.30;3.60;;;22.00;99.90;;;;;;4975367;28;20035;-67
2023/08/04 14:16:09;;;;;;;5.25;3.78;;;22.10;99.90;;;;;;4975341;28;20045;-68
2023/08/04 14:18:34;;;;;;;7.38;3.70;;;22.10;99.90;;;;;;4975217;28;20058;-64
2023/08/04 14:21:00;;;;;;;8.73;4.35;;;22.10;99.90;;;;;;4975953;28;20050;-64
2023/08/04 14:23:26;;;;;;;4.55;3.60;;;22.10;99.90;;;;;;4958771;28;20436;-65
2023/08/04 14:25:51;;;;;;;6.22;4.10;;;22.30;99.90;;;;;;4977444;28;20066;-66
2023/08/04 14:28:17;;;;;;;;;;;21.90;99.90;;;;;;4977692;28;20030;-67
2023/08/04 14:30:42;;;;;;;5.32;4.15;;;21.90;99.90;;;;;;4978840;28;20322;-65
2023/08/04 14:33:08;;;;;;;6.40;4.03;;;21.90;99.90;;;;;;4978579;28;20546;-66
2023/08/04 14:35:33;;;;;;;5.75;3.72;;;21.90;99.90;;;;;;4976518;28;20046;-65
2023/08/04 14:38:00;;;;;;;5.72;4.35;;;22.00;99.90;;;;;;4976988;28;20031;-65
2023/08/04 14:40:26;;;;;;;7.40;4.50;;;21.90;99.90;;;;;;4977201;28;20031;-65
2023/08/04 14:42:51;;;;;;;5.32;4.47;;;22.00;99.90;;;;;;4975922;28;20487;-66
2023/08/04 14:45:17;;;;;;;5.38;4.35;;;22.00;99.90;;;;;;4959740;28;20030;-66
2023/08/04 14:47:42;;;;;;;5.50;4.63;;;22.10;99.90;;;;;;4978503;28;20030;-66
2023/08/04 14:50:08;;;;;;;;;;;22.10;99.90;;;;;;4985047;28;20042;-66
2023/08/04 14:52:34;;;;;;;4.57;4.03;;;22.20;99.90;;;;;;4984889;28;19917;-66
2023/08/04 14:54:59;;;;;;;5.15;4.35;;;22.10;99.90;;;;;;4961042;28;20054;-66
2023/08/04 14:57:25;;;;;;;6.65;4.93;;;21.90;99.90;;;;;;4977890;28;20027;-67
2023/08/04 14:59:50;;;;;;;6.97;5.35;;;21.80;99.90;;;;;;4978131;28;20503;-67
2023/08/04 15:02:16;;;;;;;6.55;4.95;;;21.70;99.90;;;;;;4960401;28;20042;-66
2023/08/04 15:04:42;;;;;;;7.45;6.03;;;21.60;99.90;;;;;;4977976;28;20066;-64
2023/08/04 15:07:07;;;;;;;10.77;6.05;;;21.50;99.90;;;;;;4977551;28;20026;-65
2023/08/04 15:09:33;;;;;;;6.40;5.13;;;21.40;99.90;;;;;;4972489;28;20023;-65
2023/08/04 15:11:58;;;;;;;4.93;4.43;;;21.40;99.90;;;;;;4977133;28;20483;-64
2023/08/04 15:14:26;;;;;;;7.35;4.70;;;21.40;99.90;;;;;;4977491;28;20042;-64
2023/08/04 15:16:51;;;;;;;6.78;4.90;;;21.40;99.90;;;;;;4977675;28;20054;-64
2023/08/04 15:19:17;;;;;;;8.43;5.28;;;21.20;99.90;;;;;;4960092;28;20058;-65
2023/08/04 15:21:42;;;;;;;5.85;4.80;;;21.10;99.90;;;;;;4977898;28;20465;-64
2023/08/04 15:24:08;;;;;;;6.18;4.60;;;21.00;99.90;;;;;;4977029;28;20364;-64
2023/08/04 15:26:33;;;;;;;10.85;5.07;;;20.90;99.90;;;;;;4978049;28;20077;-64
2023/08/04 15:28:59;;;;;;;6.65;5.78;;;20.80;99.90;;;;;;4978059;28;20093;-64
2023/08/04 15:31:24;;;;;;;6.43;4.90;;;20.60;99.90;;;;;;4977760;28;20090;-64
2023/08/04 15:33:50;;;;;;;7.50;5.85;;;20.50;99.90;;;;;;4977365;28;20102;-64
2023/08/04 15:36:16;;;;;;;8.73;6.68;;;20.30;99.90;;;;;;4977191;28;20035;-65
2023/08/04 15:38:41;;;;;;;8.55;7.30;;;20.00;99.90;;;;;;4977730;28;20561;-64
2023/08/04 15:41:08;;;;;;;10.75;8.50;;;19.70;99.90;;;;;;4978348;28;20216;-64
2023/08/04 15:43:37;;;;;;;9.77;7.43;;;19.40;99.90;;;;;;4977916;28;20368;-64
2023/08/04 15:46:03;;;;;;;9.27;7.07;;;19.20;99.90;;;;;;4977848;28;20034;-66
2023/08/04 15:48:28;;;;;;;9.57;7.55;;;19.10;99.90;;;;;;4977259;28;20034;-65
2023/08/04 15:50:59;;;;;;;12.77;7.40;;;18.80;99.90;;;;;;4977147;28;20031;-66
2023/08/04 15:53:31;;;;;;;12.60;8.80;;;18.60;99.90;;;;;;4977606;28;20158;-65
2023/08/04 15:55:57;;;;;;;10.65;6.90;;;18.60;99.90;;;;;;4978304;28;20452;-65
2023/08/04 15:58:24;;;;;;;8.68;7.30;;;18.70;99.90;;;;;;4978056;28;20030;-65
2023/08/04 16:00:49;;;;;;;10.52;7.10;;;18.70;99.90;;;;;;4976153;28;20049;-65
2023/08/04 16:03:15;;;;;;;13.70;8.30;;;18.80;99.90;;;;;;4959227;28;20387;-66
2023/08/04 16:05:40;;;;;;;31.25;17.95;;;18.70;99.90;;;;;;4976516;28;20031;-66
2023/08/04 16:08:06;;;;;;;16.25;9.98;;;18.60;99.90;;;;;;4976765;28;20038;-65
2023/08/04 16:10:32;;;;;;;15.20;9.55;;;18.50;99.90;;;;;;4977625;28;20037;-66
2023/08/04 16:12:58;;;;;;;13.82;8.50;;;18.40;99.90;;;;;;4978471;28;20504;-65
2023/08/04 16:15:23;;;;;;;;;;;18.40;99.90;;;;;;4977933;28;20459;-65
2023/08/04 16:17:49;;;;;;;13.68;10.00;;;18.40;99.90;;;;;;4977083;28;19937;-66
2023/08/04 16:20:15;;;;;;;13.38;9.23;;;18.60;99.90;;;;;;4995917;23;20054;-66
2023/08/04 16:22:41;;;;;;;16.75;8.73;;;18.60;99.90;;;;;;4958594;28;20530;-67
2023/08/04 16:25:07;;;;;;;16.88;10.25;;;18.70;99.90;;;;;;4958546;28;20131;-66
2023/08/04 16:27:32;;;;;;;16.67;10.60;;;18.90;99.90;;;;;;4975999;28;20068;-67
2023/08/04 16:29:58;;;;;;;12.50;8.60;;;18.90;99.90;;;;;;4958639;28;20031;-69
2023/08/04 16:32:24;;;;;;;11.85;8.38;;;19.10;99.90;;;;;;4976057;28;20045;-67
2023/08/04 16:34:49;;;;;;;15.85;9.98;;;19.10;99.90;;;;;;4976036;28;20030;-67
2023/08/04 16:37:15;;;;;;;15.60;9.25;;;19.10;99.90;;;;;;4975894;28;20038;-67
2023/08/04 16:39:40;;;;;;;14.38;8.75;;;19.10;99.90;;;;;;4958592;28;20035;-68
2023/08/04 16:42:06;;;;;;;13.50;8.10;;;19.10;99.90;;;;;;4957592;28;20036;-70
2023/08/04 16:44:31;;;;;;;9.73;7.45;;;19.10;99.90;;;;;;4956236;29;20074;-69
2023/08/04 16:46:57;;;;;;;11.57;7.30;;;19.10;99.90;;;;;;4956342;29;20027;-69